Time;durP1;ratioP1;P1;durP2;ratioP2;P2;SDS_P1;SDS_P2;PMS_P1;PMS_P2;Temp;Humidity;BMP_temperature;BMP_pressure;BME280_temperature;BME280_humidity;BME280_pressure;Samples;Min_cycle;Max_cycle;Signal;HPM_P1;HPM_P2
2022/06/30 00:01:59;;;;;;;3.70;2.65;;;18.40;99.90;;;;;;5058996;28;20548;-82
2022/06/30 00:04:27;;;;;;;3.30;2.60;;;18.30;99.90;;;;;;5060047;28;20063;-82
2022/06/30 00:06:54;;;;;;;4.03;2.85;;;18.20;99.90;;;;;;5058896;28;20571;-82
2022/06/30 00:09:22;;;;;;;4.00;2.50;;;18.20;99.90;;;;;;5069422;28;20044;-82
2022/06/30 00:11:49;;;;;;;3.33;2.47;;;18.10;99.90;;;;;;5061096;28;20048;-83
2022/06/30 00:14:18;;;;;;;3.20;2.90;;;18.10;99.90;;;;;;5061353;28;20037;-83
2022/06/30 00:16:45;;;;;;;2.92;2.72;;;18.10;99.90;;;;;;5066584;28;20040;-82
2022/06/30 00:19:12;;;;;;;4.10;3.15;;;18.00;99.90;;;;;;5052347;28;20040;-82
2022/06/30 00:21:40;;;;;;;3.03;2.72;;;18.00;99.90;;;;;;5070053;28;20102;-82
2022/06/30 00:24:07;;;;;;;5.50;3.00;;;17.90;99.90;;;;;;5068885;28;20504;-83
2022/06/30 00:26:35;;;;;;;6.70;3.13;;;17.90;99.90;;;;;;5070166;28;20116;-83
2022/06/30 00:29:02;;;;;;;4.68;2.88;;;17.90;99.90;;;;;;5059121;28;20099;-83
2022/06/30 00:31:31;;;;;;;3.83;2.58;;;17.90;99.90;;;;;;5042524;28;20040;-82
2022/06/30 00:33:58;;;;;;;3.13;2.60;;;17.80;99.90;;;;;;5060213;28;20111;-82
2022/06/30 00:36:26;;;;;;;3.53;2.45;;;17.80;99.90;;;;;;5066589;28;20398;-82
2022/06/30 00:38:53;;;;;;;3.35;2.65;;;17.80;99.90;;;;;;5069864;28;20052;-81
2022/06/30 00:41:21;;;;;;;3.33;3.00;;;17.80;99.90;;;;;;5058006;28;20044;-82
2022/06/30 00:43:49;;;;;;;7.97;3.30;;;17.70;99.90;;;;;;5059811;28;20066;-81
2022/06/30 00:46:17;;;;;;;11.30;3.20;;;17.70;99.90;;;;;;5059581;28;20041;-82
2022/06/30 00:48:46;;;;;;;5.40;2.72;;;17.70;99.90;;;;;;5066086;28;20045;-81
2022/06/30 00:51:13;;;;;;;4.80;2.85;;;17.70;99.90;;;;;;5052303;28;20047;-81
2022/06/30 00:53:42;;;;;;;4.60;2.80;;;17.70;99.90;;;;;;5059013;28;20232;-81
2022/06/30 00:56:10;;;;;;;6.80;3.10;;;17.70;99.90;;;;;;5060619;28;20131;-81
2022/06/30 00:58:40;;;;;;;3.58;2.83;;;17.70;99.90;;;;;;5059579;28;20053;-82
2022/06/30 01:01:08;;;;;;;3.92;2.78;;;17.70;99.90;;;;;;5067968;28;20109;-81
2022/06/30 01:03:36;;;;;;;4.60;2.95;;;17.70;99.90;;;;;;5068753;28;20114;-82
2022/06/30 01:06:06;;;;;;;4.68;3.13;;;17.70;99.90;;;;;;5069004;28;20428;-81
2022/06/30 01:08:34;;;;;;;8.88;3.17;;;17.60;99.90;;;;;;5058889;28;20486;-82
2022/06/30 01:13:48;;;;;;;5.82;3.30;;;17.60;99.90;;;;;;5066470;28;20051;-82
2022/06/30 01:16:16;;;;;;;3.17;2.88;;;17.60;99.90;;;;;;5067322;28;20540;-82
2022/06/30 01:18:43;;;;;;;4.57;2.75;;;17.50;99.90;;;;;;5068490;28;20036;-83
2022/06/30 01:21:12;;;;;;;4.38;3.08;;;17.50;99.90;;;;;;5068183;28;20079;-83
2022/06/30 01:23:40;;;;;;;4.70;3.25;;;17.50;99.90;;;;;;5068826;28;20075;-82
2022/06/30 01:26:07;;;;;;;4.43;3.47;;;17.50;99.90;;;;;;5066205;28;20044;-82
2022/06/30 01:28:35;;;;;;;4.90;2.90;;;17.50;99.90;;;;;;5069764;28;20067;-82
2022/06/30 01:31:02;;;;;;;3.08;2.75;;;17.50;99.90;;;;;;5051704;28;20048;-83
2022/06/30 01:33:29;;;;;;;6.00;2.88;;;17.50;99.90;;;;;;5051644;28;20076;-83
2022/06/30 01:35:57;;;;;;;5.05;3.00;;;17.40;99.90;;;;;;5051457;28;20099;-82
2022/06/30 01:38:25;;;;;;;4.72;3.13;;;17.40;99.90;;;;;;5067357;28;20439;-82
2022/06/30 01:40:54;;;;;;;4.60;3.10;;;17.40;99.90;;;;;;5051798;28;20140;-82
2022/06/30 01:43:21;;;;;;;5.72;3.08;;;17.40;99.90;;;;;;5068457;28;20045;-83
2022/06/30 01:45:48;;;;;;;3.50;3.15;;;17.40;99.90;;;;;;5058701;28;20068;-82
2022/06/30 01:48:16;;;;;;;3.95;3.55;;;17.30;99.90;;;;;;5042184;28;20099;-82
2022/06/30 01:50:43;;;;;;;6.35;3.55;;;17.30;99.90;;;;;;5060797;28;20041;-82
2022/06/30 01:53:10;;;;;;;5.80;3.35;;;17.30;99.90;;;;;;5045730;28;20041;-82
2022/06/30 01:55:37;;;;;;;3.35;3.05;;;17.30;99.90;;;;;;5062625;28;20448;-82
2022/06/30 01:58:07;;;;;;;7.90;3.95;;;17.30;99.90;;;;;;5071826;28;20049;-82
2022/06/30 02:00:34;;;;;;;5.60;2.83;;;17.20;99.90;;;;;;5071865;28;20052;-82
2022/06/30 02:03:01;;;;;;;4.68;3.25;;;17.30;99.90;;;;;;5073010;28;20128;-82
2022/06/30 02:05:29;;;;;;;3.25;2.83;;;17.30;99.90;;;;;;5045617;28;20048;-83
2022/06/30 02:07:56;;;;;;;6.50;3.00;;;17.30;99.90;;;;;;5045590;28;20053;-82
2022/06/30 02:10:25;;;;;;;6.55;3.10;;;17.30;99.90;;;;;;5071553;28;20588;-82
2022/06/30 02:12:52;;;;;;;4.25;3.00;;;17.30;99.90;;;;;;5062017;28;20523;-83
2022/06/30 02:15:23;;;;;;;4.78;2.95;;;17.30;99.90;;;;;;5063747;28;20049;-83
2022/06/30 02:17:52;;;;;;;6.78;3.10;;;17.40;99.90;;;;;;5070978;28;20065;-83
2022/06/30 02:20:23;;;;;;;5.00;2.83;;;17.40;99.90;;;;;;5072076;28;20505;-81
2022/06/30 02:22:52;;;;;;;4.50;2.97;;;17.40;99.90;;;;;;5061819;28;20052;-81
2022/06/30 02:25:20;;;;;;;3.55;2.70;;;17.40;99.90;;;;;;5061084;28;20458;-81
2022/06/30 02:27:47;;;;;;;3.92;3.05;;;17.40;99.90;;;;;;5052231;28;20055;-80
2022/06/30 02:30:15;;;;;;;3.50;3.17;;;17.40;99.90;;;;;;5054377;28;20048;-81
2022/06/30 02:32:44;;;;;;;4.68;2.67;;;17.40;99.90;;;;;;5070677;28;20040;-80
2022/06/30 02:35:12;;;;;;;2.83;2.50;;;17.40;99.90;;;;;;5072190;28;20587;-81
2022/06/30 02:37:39;;;;;;;5.80;2.90;;;17.50;99.90;;;;;;5072055;28;20052;-81
2022/06/30 02:40:09;;;;;;;3.78;3.03;;;17.50;99.90;;;;;;5068683;28;20420;-81
2022/06/30 02:42:37;;;;;;;9.60;3.78;;;17.50;99.90;;;;;;5072746;28;20449;-82
2022/06/30 02:45:05;;;;;;;7.32;3.03;;;17.50;99.90;;;;;;5061002;28;20501;-81
2022/06/30 02:47:34;;;;;;;6.15;3.20;;;17.60;99.90;;;;;;5072740;28;20056;-81
2022/06/30 02:50:04;;;;;;;3.88;3.45;;;17.50;99.90;;;;;;5073243;28;20416;-80
2022/06/30 02:52:33;;;;;;;5.07;3.65;;;17.60;99.90;;;;;;5073146;28;20056;-81
2022/06/30 02:55:00;;;;;;;4.65;3.30;;;17.60;99.90;;;;;;5072874;28;20098;-81
2022/06/30 02:57:30;;;;;;;4.60;3.40;;;17.60;99.90;;;;;;5072885;28;20053;-82
2022/06/30 02:59:58;;;;;;;7.45;3.15;;;17.60;99.90;;;;;;5054698;28;20473;-81
2022/06/30 03:02:25;;;;;;;2.75;2.55;;;17.70;99.90;;;;;;5070930;28;20044;-82
2022/06/30 03:04:52;;;;;;;7.22;3.70;;;17.70;99.90;;;;;;5054645;28;20076;-82
2022/06/30 03:07:21;;;;;;;3.70;3.22;;;17.70;99.90;;;;;;5072708;28;20504;-82
2022/06/30 03:09:48;;;;;;;3.60;3.30;;;17.80;99.90;;;;;;5073244;28;20471;-82
2022/06/30 03:12:15;;;;;;;3.85;3.55;;;17.80;99.90;;;;;;5071659;28;20509;-82
2022/06/30 03:14:43;;;;;;;5.82;5.15;;;17.80;99.90;;;;;;5072225;28;20057;-82
2022/06/30 03:17:10;;;;;;;12.45;5.70;;;17.80;99.90;;;;;;5072674;28;20084;-82
2022/06/30 03:19:38;;;;;;;6.60;4.03;;;17.90;99.90;;;;;;5072153;28;20055;-81
2022/06/30 03:22:05;;;;;;;8.93;3.28;;;17.90;99.90;;;;;;5073079;28;20094;-81
2022/06/30 03:24:34;;;;;;;5.03;2.83;;;18.00;99.90;;;;;;5070605;28;20044;-81
2022/06/30 03:27:02;;;;;;;3.15;2.95;;;17.90;99.90;;;;;;5071431;28;20087;-81
2022/06/30 03:29:29;;;;;;;6.47;3.05;;;17.90;99.90;;;;;;5072251;28;20041;-81
2022/06/30 03:31:56;;;;;;;6.63;3.20;;;17.90;99.90;;;;;;5071227;28;20057;-81
2022/06/30 03:34:24;;;;;;;5.18;3.35;;;18.00;99.90;;;;;;5074641;28;20052;-81
2022/06/30 03:36:51;;;;;;;6.25;4.03;;;18.00;99.90;;;;;;5053641;28;20155;-81
2022/06/30 03:39:18;;;;;;;6.45;4.40;;;18.00;99.90;;;;;;5069859;28;20463;-82
2022/06/30 03:41:47;;;;;;;5.53;4.38;;;18.00;99.90;;;;;;5071124;28;20056;-82
2022/06/30 03:44:14;;;;;;;5.63;3.88;;;18.00;99.90;;;;;;5070443;28;20131;-82
2022/06/30 03:46:42;;;;;;;5.00;3.97;;;18.10;99.90;;;;;;5071111;28;20053;-81
2022/06/30 03:49:09;;;;;;;8.52;3.70;;;18.10;99.90;;;;;;5071848;28;20040;-81
2022/06/30 03:51:37;;;;;;;13.30;4.90;;;18.10;99.90;;;;;;5070188;28;20541;-81
2022/06/30 03:54:04;;;;;;;3.83;3.35;;;18.20;99.90;;;;;;5071988;28;20045;-81
2022/06/30 03:56:32;;;;;;;6.03;3.85;;;18.20;99.90;;;;;;5053738;28;20452;-80
2022/06/30 03:59:00;;;;;;;6.28;3.35;;;18.30;99.90;;;;;;5071883;28;20083;-80
2022/06/30 04:01:28;;;;;;;12.02;4.20;;;18.30;99.90;;;;;;5071375;28;20071;-82
2022/06/30 04:03:55;;;;;;;8.20;4.13;;;18.30;99.90;;;;;;5070502;28;20064;-80
2022/06/30 04:06:23;;;;;;;7.28;4.03;;;18.40;99.90;;;;;;5053416;28;20048;-80
2022/06/30 04:08:51;;;;;;;4.25;3.20;;;18.50;99.90;;;;;;5070096;28;20051;-80
2022/06/30 04:11:18;;;;;;;10.40;3.95;;;18.50;99.90;;;;;;5071287;28;20080;-80
2022/06/30 04:13:45;;;;;;;6.15;3.85;;;18.60;99.90;;;;;;5070775;28;20079;-81
2022/06/30 04:16:14;;;;;;;7.28;3.63;;;18.70;99.90;;;;;;5070686;28;20512;-80
2022/06/30 04:18:41;;;;;;;3.30;3.10;;;18.70;99.90;;;;;;5069506;28;20792;-80
2022/06/30 04:21:09;;;;;;;6.72;3.30;;;18.80;99.90;;;;;;5071070;28;20500;-80
2022/06/30 04:23:37;;;;;;;4.72;4.10;;;18.90;99.90;;;;;;5071702;28;20056;-81
2022/06/30 04:26:04;;;;;;;4.13;3.60;;;19.00;99.90;;;;;;5069932;28;20425;-81
2022/06/30 04:28:31;;;;;;;5.78;3.20;;;19.10;99.90;;;;;;5070991;28;20410;-80
2022/06/30 04:33:45;;;;;;;7.53;3.40;;;19.40;99.90;;;;;;5069576;28;20451;-80
2022/06/30 04:36:41;;;;;;;6.85;3.40;;;19.50;99.90;;;;;;5070865;28;20051;-80
2022/06/30 04:39:09;;;;;;;5.47;3.33;;;19.60;99.90;;;;;;5062608;28;20052;-81
2022/06/30 04:41:36;;;;;;;4.88;3.13;;;19.70;99.90;;;;;;5069571;28;20272;-81
2022/06/30 04:44:05;;;;;;;5.70;3.90;;;19.70;99.90;;;;;;5070719;28;20528;-81
2022/06/30 04:46:32;;;;;;;5.45;3.83;;;19.80;99.90;;;;;;5069241;28;20457;-81
2022/06/30 04:49:01;;;;;;;3.80;3.45;;;19.90;99.90;;;;;;5068775;28;20124;-81
2022/06/30 04:51:29;;;;;;;4.68;3.05;;;20.00;99.90;;;;;;5071028;28;20052;-80
2022/06/30 04:53:56;;;;;;;8.10;3.80;;;20.20;99.90;;;;;;5069157;28;20080;-83
2022/06/30 04:56:24;;;;;;;4.30;3.33;;;20.20;99.90;;;;;;5069716;28;20044;-84
2022/06/30 04:58:51;;;;;;;5.97;3.45;;;20.40;99.90;;;;;;5070414;28;20128;-84
2022/06/30 05:01:18;;;;;;;4.65;3.30;;;20.50;99.90;;;;;;5069780;28;20064;-83
2022/06/30 05:03:46;;;;;;;8.43;3.10;;;20.60;99.90;;;;;;5070345;28;20048;-83
2022/06/30 05:06:15;;;;;;;12.27;4.75;;;20.70;99.90;;;;;;5070137;28;20463;-84
2022/06/30 05:08:43;;;;;;;4.00;3.25;;;20.80;99.90;;;;;;5069680;28;20076;-83
2022/06/30 05:11:10;;;;;;;8.25;3.40;;;20.90;99.90;;;;;;5068864;28;20403;-84
2022/06/30 05:13:37;;;;;;;6.90;3.40;;;21.00;99.90;;;;;;5051971;28;20040;-83
2022/06/30 05:16:05;;;;;;;4.82;3.35;;;21.10;99.90;;;;;;5068858;28;20522;-83
2022/06/30 05:18:33;;;;;;;7.22;3.80;;;21.20;99.90;;;;;;5069302;28;20063;-83
2022/06/30 05:21:00;;;;;;;4.25;3.95;;;21.30;99.90;;;;;;5052517;28;20063;-83
2022/06/30 05:23:29;;;;;;;7.18;3.67;;;21.40;99.90;;;;;;5068650;28;20513;-83
2022/06/30 05:28:41;;;;;;;14.07;3.92;;;21.70;99.90;;;;;;5070071;28;20075;-83
2022/06/30 05:31:08;;;;;;;7.50;4.28;;;21.90;99.90;;;;;;5070820;28;20041;-84
2022/06/30 05:33:38;;;;;;;16.95;4.53;;;22.00;99.90;;;;;;5052441;28;20459;-83
2022/06/30 05:36:06;;;;;;;8.05;3.72;;;22.30;99.90;;;;;;5068767;28;20052;-83
2022/06/30 05:38:37;;;;;;;9.30;3.72;;;22.40;99.90;;;;;;5051884;28;20076;-84
2022/06/30 05:41:04;;;;;;;5.80;3.50;;;22.70;99.90;;;;;;5068611;28;20540;-84
2022/06/30 05:43:31;;;;;;;7.68;3.35;;;22.80;99.90;;;;;;5051792;28;20303;-84
2022/06/30 05:45:59;;;;;;;4.55;3.60;;;23.10;99.90;;;;;;5052710;28;20150;-83
2022/06/30 05:48:26;;;;;;;4.80;4.07;;;23.60;99.90;;;;;;5052144;28;20125;-84
2022/06/30 05:50:54;;;;;;;5.43;3.55;;;24.10;99.90;;;;;;5070965;28;20049;-84
2022/06/30 05:53:22;;;;;;;8.05;3.63;;;24.70;99.90;;;;;;5070331;28;20509;-84
2022/06/30 05:55:50;;;;;;;4.90;3.40;;;25.20;99.90;;;;;;5052195;28;20143;-84
2022/06/30 05:58:19;;;;;;;4.22;3.47;;;25.70;99.90;;;;;;5069781;28;20134;-83
2022/06/30 06:00:46;;;;;;;4.22;3.67;;;26.20;99.90;;;;;;5051366;28;20205;-83
2022/06/30 06:03:13;;;;;;;21.00;4.18;;;26.60;99.90;;;;;;5068500;28;20075;-83
2022/06/30 06:05:41;;;;;;;15.38;6.00;;;27.10;98.90;;;;;;5069177;28;20059;-84
2022/06/30 06:08:10;;;;;;;7.80;2.95;;;27.40;96.30;;;;;;5069886;28;20053;-84
2022/06/30 06:10:37;;;;;;;5.43;2.60;;;27.90;93.60;;;;;;5068438;28;20397;-83
2022/06/30 06:13:07;;;;;;;4.32;2.75;;;28.30;90.20;;;;;;5069465;28;20056;-87
2022/06/30 06:15:34;;;;;;;4.68;2.88;;;28.70;84.90;;;;;;5068906;28;20531;-85
2022/06/30 06:18:02;;;;;;;4.07;2.40;;;29.20;83.30;;;;;;5069779;28;20143;-84
2022/06/30 06:20:29;;;;;;;2.75;2.10;;;29.60;70.50;;;;;;5067965;28;20063;-85
2022/06/30 06:22:57;;;;;;;3.75;2.47;;;29.80;68.90;;;;;;5051236;28;20501;-83
2022/06/30 06:25:24;;;;;;;3.50;2.17;;;30.10;67.90;;;;;;5068302;28;20623;-84
2022/06/30 06:30:34;;;;;;;2.40;2.20;;;30.60;65.40;;;;;;4998405;28;20075;-86
2022/06/30 06:33:02;;;;;;;5.03;2.45;;;30.90;63.40;;;;;;5069882;28;20041;-83
2022/06/30 06:35:29;;;;;;;10.35;2.95;;;31.30;62.60;;;;;;5069656;28;20142;-83
2022/06/30 06:37:56;;;;;;;7.60;2.50;;;31.50;62.10;;;;;;5071360;28;20076;-83
2022/06/30 06:40:24;;;;;;;4.75;2.33;;;31.70;60.70;;;;;;5071158;28;20053;-84
2022/06/30 06:42:51;;;;;;;12.20;2.45;;;31.80;59.20;;;;;;5055124;28;20150;-85
2022/06/30 06:45:19;;;;;;;9.93;2.72;;;31.90;57.40;;;;;;5055289;28;20071;-84
2022/06/30 06:47:48;;;;;;;8.20;2.50;;;32.10;57.40;;;;;;5070973;28;20048;-84
2022/06/30 06:50:15;;;;;;;4.95;2.38;;;32.40;55.80;;;;;;5070395;28;20049;-85
2022/06/30 06:52:42;;;;;;;6.72;2.30;;;32.50;54.90;;;;;;5070897;28;20055;-85
2022/06/30 06:55:11;;;;;;;6.20;2.40;;;32.90;54.60;;;;;;5054516;28;20071;-84
2022/06/30 06:57:39;;;;;;;6.38;2.50;;;33.10;53.70;;;;;;5065331;28;20135;-86
2022/06/30 07:00:08;;;;;;;9.05;3.00;;;33.40;52.20;;;;;;5073533;28;20060;-86
2022/06/30 07:02:36;;;;;;;13.20;3.40;;;33.60;51.40;;;;;;5072497;28;20123;-85
2022/06/30 07:05:05;;;;;;;10.52;6.38;;;33.70;52.30;;;;;;5072775;28;20045;-84
2022/06/30 07:07:33;;;;;;;5.05;2.90;;;34.00;50.90;;;;;;5063773;28;20067;-85
2022/06/30 07:10:00;;;;;;;4.22;2.40;;;34.10;50.20;;;;;;5051912;28;20065;-84
2022/06/30 07:12:27;;;;;;;4.10;2.40;;;34.30;49.70;;;;;;5053283;28;20588;-84
2022/06/30 07:14:58;;;;;;;4.75;2.35;;;34.40;48.20;;;;;;5058786;28;20060;-84
2022/06/30 07:17:25;;;;;;;3.00;2.20;;;34.60;48.40;;;;;;5073161;28;20431;-84
2022/06/30 07:19:53;;;;;;;5.45;2.42;;;34.80;48.90;;;;;;5072896;28;20130;-84
2022/06/30 07:22:22;;;;;;;5.28;2.40;;;35.00;47.80;;;;;;5074515;28;20044;-84
2022/06/30 07:24:49;;;;;;;5.40;1.90;;;35.00;47.80;;;;;;5073361;28;20044;-84
2022/06/30 07:27:16;;;;;;;3.47;1.90;;;35.20;45.30;;;;;;5066922;28;20048;-84
2022/06/30 07:29:44;;;;;;;4.40;1.65;;;35.30;44.40;;;;;;5054431;28;20405;-83
2022/06/30 07:32:13;;;;;;;4.63;1.88;;;35.40;43.60;;;;;;5056203;28;20424;-83
2022/06/30 07:34:40;;;;;;;8.00;2.03;;;35.60;44.10;;;;;;5073436;28;20061;-83
2022/06/30 07:37:07;;;;;;;2.67;2.15;;;35.90;44.40;;;;;;5068104;28;20052;-84
2022/06/30 07:39:36;;;;;;;2.60;2.10;;;36.00;43.20;;;;;;5056066;28;20459;-84
2022/06/30 07:42:04;;;;;;;2.35;1.67;;;36.20;43.00;;;;;;5065978;28;20137;-84
2022/06/30 07:44:31;;;;;;;13.88;2.83;;;36.40;43.50;;;;;;5072983;28;20040;-85
2022/06/30 07:46:58;;;;;;;4.20;2.05;;;36.20;43.70;;;;;;5072382;28;20472;-84
2022/06/30 07:49:26;;;;;;;7.55;2.30;;;36.10;44.10;;;;;;5071946;28;20040;-87
2022/06/30 07:51:53;;;;;;;2.88;1.75;;;36.20;44.80;;;;;;5072543;28;20052;-86
2022/06/30 07:54:21;;;;;;;8.57;2.10;;;36.30;43.60;;;;;;5064241;28;20053;-88
2022/06/30 07:56:50;;;;;;;5.30;2.00;;;36.30;43.00;;;;;;5068963;28;20048;-88
2022/06/30 07:59:19;;;;;;;2.88;2.03;;;36.20;43.40;;;;;;5071243;28;20048;-87
2022/06/30 08:01:47;;;;;;;2.55;1.92;;;36.30;43.90;;;;;;5061581;28;20045;-82
2022/06/30 08:04:17;;;;;;;2.78;1.77;;;36.40;42.60;;;;;;5062020;28;20064;-82
2022/06/30 08:06:46;;;;;;;12.15;3.35;;;36.60;41.90;;;;;;5068974;28;20135;-81
2022/06/30 08:09:15;;;;;;;2.00;1.90;;;36.70;43.40;;;;;;5070623;28;20350;-83
2022/06/30 08:11:43;;;;;;;4.43;2.08;;;36.90;43.90;;;;;;5078297;28;20043;-88
2022/06/30 08:14:12;;;;;;;6.47;1.85;;;37.30;43.20;;;;;;5050860;28;20045;-87
2022/06/30 08:16:39;;;;;;;7.20;2.38;;;37.70;42.00;;;;;;5071754;28;20068;-88
2022/06/30 08:19:06;;;;;;;14.45;3.08;;;38.10;42.50;;;;;;5068972;28;20520;-86
2022/06/30 08:21:34;;;;;;;3.60;1.77;;;38.20;41.80;;;;;;5070012;28;20102;-85
2022/06/30 08:24:01;;;;;;;3.30;3.00;;;38.30;41.50;;;;;;5067956;28;20076;-86
2022/06/30 08:26:28;;;;;;;3.92;2.30;;;38.50;41.00;;;;;;5069000;28;20044;-83
2022/06/30 08:28:55;;;;;;;5.45;1.83;;;38.50;40.60;;;;;;5071082;28;20056;-83
2022/06/30 08:31:25;;;;;;;2.47;1.95;;;38.70;40.00;;;;;;5070995;28;20048;-84
2022/06/30 08:33:54;;;;;;;14.25;2.08;;;38.60;40.10;;;;;;5064736;28;20037;-88
2022/06/30 08:36:21;;;;;;;12.85;2.13;;;38.70;41.00;;;;;;5065623;28;20140;-87
2022/06/30 08:38:48;;;;;;;7.13;1.77;;;38.90;41.20;;;;;;5068858;28;20094;-87
2022/06/30 08:44:01;;;;;;;3.58;1.75;;;39.00;37.40;;;;;;5069634;28;20048;-84
2022/06/30 08:46:30;;;;;;;2.15;1.60;;;38.80;38.90;;;;;;5058518;28;20090;-85
2022/06/30 08:48:57;;;;;;;4.45;1.65;;;38.70;38.30;;;;;;5060341;28;20095;-80
2022/06/30 08:51:28;;;;;;;1.75;1.52;;;38.90;40.00;;;;;;5061151;28;20053;-83
2022/06/30 08:53:57;;;;;;;;;;;39.00;38.50;;;;;;5066702;28;20485;-84
2022/06/30 08:56:25;;;;;;;1.90;1.77;;;39.30;39.70;;;;;;5067671;28;19951;-84
2022/06/30 08:58:54;;;;;;;5.22;1.80;;;39.40;39.60;;;;;;5068669;28;20079;-87
2022/06/30 09:01:22;;;;;;;6.30;2.20;;;39.70;40.20;;;;;;5065662;28;20513;-86
2022/06/30 09:03:51;;;;;;;2.35;1.73;;;40.10;39.60;;;;;;5069810;28;20036;-82
2022/06/30 09:06:18;;;;;;;4.07;2.00;;;40.10;37.50;;;;;;5067307;28;20139;-83
2022/06/30 09:08:46;;;;;;;2.67;1.55;;;40.00;39.00;;;;;;5070461;28;20527;-82
2022/06/30 09:11:13;;;;;;;2.60;1.95;;;39.90;38.20;;;;;;5069534;28;20110;-84
2022/06/30 09:13:44;;;;;;;4.65;1.95;;;39.70;38.20;;;;;;5069571;28;20516;-82
2022/06/30 09:16:12;;;;;;;4.57;1.73;;;40.00;39.40;;;;;;5069738;28;20044;-82
2022/06/30 09:18:40;;;;;;;3.08;1.70;;;40.40;38.60;;;;;;5068314;28;20110;-82
2022/06/30 09:21:16;;;;;;;2.15;1.50;;;40.70;39.20;;;;;;5069056;28;20153;-82
2022/06/30 09:23:45;;;;;;;2.08;1.60;;;40.80;37.90;;;;;;5069418;28;20056;-82
2022/06/30 09:26:19;;;;;;;2.10;1.80;;;40.90;38.40;;;;;;5050999;28;20044;-84
2022/06/30 09:28:50;;;;;;;2.47;1.85;;;41.10;38.00;;;;;;5069008;28;20554;-83
2022/06/30 09:31:31;;;;;;;;;;;41.20;38.50;;;;;;5067597;28;20405;-82
2022/06/30 09:34:12;;;;;;;6.53;1.50;;;41.30;37.20;;;;;;5068210;28;19924;-82
2022/06/30 09:36:41;;;;;;;3.88;1.83;;;41.30;36.70;;;;;;5067840;28;20044;-82
2022/06/30 09:39:11;;;;;;;5.47;1.70;;;41.30;37.30;;;;;;5071345;28;20044;-82
2022/06/30 09:41:41;;;;;;;2.92;1.55;;;41.20;37.10;;;;;;5071955;28;20048;-82
2022/06/30 09:44:19;;;;;;;2.55;1.90;;;41.40;36.50;;;;;;5072273;28;20524;-81
2022/06/30 09:46:56;;;;;;;4.93;2.10;;;41.70;36.40;;;;;;5071195;28;20140;-82
2022/06/30 09:49:29;;;;;;;3.80;1.90;;;41.70;36.30;;;;;;5071032;28;20094;-82
2022/06/30 09:51:59;;;;;;;1.90;1.50;;;41.90;36.80;;;;;;5071623;28;20139;-81
2022/06/30 09:54:27;;;;;;;5.45;2.00;;;42.00;35.10;;;;;;5069544;28;20060;-81
2022/06/30 09:57:06;;;;;;;3.13;1.98;;;41.90;35.70;;;;;;5071559;28;20049;-82
2022/06/30 09:59:34;;;;;;;5.65;1.80;;;41.90;37.00;;;;;;5071490;28;20560;-82
2022/06/30 10:02:06;;;;;;;2.10;2.00;;;42.00;35.50;;;;;;5069387;28;20055;-81
2022/06/30 10:04:51;;;;;;;4.05;1.83;;;42.00;35.30;;;;;;5071542;28;20144;-81
2022/06/30 10:07:21;;;;;;;6.28;2.22;;;41.70;35.20;;;;;;5071111;28;20245;-80
2022/06/30 10:09:49;;;;;;;7.07;1.80;;;41.70;35.50;;;;;;5071629;28;20090;-82
2022/06/30 10:12:19;;;;;;;5.07;1.75;;;41.70;36.10;;;;;;5075762;28;20421;-81
2022/06/30 10:14:48;;;;;;;2.65;1.95;;;42.00;36.50;;;;;;5074747;28;20056;-81
2022/06/30 10:17:17;;;;;;;4.95;1.85;;;42.10;35.50;;;;;;5075152;28;20059;-83
2022/06/30 10:19:44;;;;;;;3.42;1.80;;;42.30;36.30;;;;;;5075314;28;20075;-83
2022/06/30 10:22:12;;;;;;;5.18;2.22;;;42.30;36.00;;;;;;5074771;28;20080;-83
2022/06/30 10:24:42;;;;;;;2.83;1.40;;;42.10;35.50;;;;;;5075017;28;20059;-83
2022/06/30 10:27:14;;;;;;;5.07;1.90;;;42.20;34.60;;;;;;5074796;28;20076;-82
2022/06/30 10:29:45;;;;;;;3.13;2.35;;;42.30;36.00;;;;;;5074758;28;20052;-81
2022/06/30 10:32:15;;;;;;;;;;;42.30;35.90;;;;;;5075829;28;20098;-81
2022/06/30 10:34:55;;;;;;;5.00;1.90;;;42.40;35.50;;;;;;5074503;28;19924;-81
2022/06/30 10:37:28;;;;;;;2.95;1.98;;;42.50;34.80;;;;;;5074451;28;20055;-81
2022/06/30 10:40:00;;;;;;;3.22;1.98;;;42.60;35.50;;;;;;5075128;28;20144;-81
2022/06/30 10:42:49;;;;;;;2.58;1.92;;;42.80;35.00;;;;;;5073601;28;20637;-80
2022/06/30 10:45:57;;;;;;;3.50;1.70;;;43.10;34.70;;;;;;5067464;28;20076;-81
2022/06/30 10:48:27;;;;;;;6.78;2.22;;;43.10;34.30;;;;;;5066466;28;20048;-80
2022/06/30 10:50:54;;;;;;;7.13;2.03;;;43.20;35.50;;;;;;5073446;28;20052;-81
2022/06/30 10:53:51;;;;;;;5.72;1.90;;;43.30;34.90;;;;;;5074672;28;20295;-81
2022/06/30 10:56:21;;;;;;;5.97;2.20;;;43.20;33.50;;;;;;5073383;28;20067;-81
2022/06/30 10:59:10;;;;;;;2.70;1.87;;;42.80;34.30;;;;;;5073138;28;20060;-81
2022/06/30 11:01:39;;;;;;;2.05;1.95;;;42.80;34.80;;;;;;5074184;28;20049;-82
2022/06/30 11:04:10;;;;;;;2.78;1.88;;;42.80;33.90;;;;;;5074408;28;20052;-84
2022/06/30 11:07:01;;;;;;;1.67;1.58;;;42.90;34.30;;;;;;5073220;28;20048;-82
2022/06/30 11:10:01;;;;;;;1.70;1.60;;;43.00;33.10;;;;;;5075378;28;20056;-84
2022/06/30 11:13:08;;;;;;;2.38;1.80;;;42.80;33.30;;;;;;5073514;28;20053;-85
2022/06/30 11:15:57;;;;;;;2.03;1.73;;;42.90;33.50;;;;;;5075058;28;20076;-83
2022/06/30 11:18:26;;;;;;;3.47;1.95;;;43.10;34.10;;;;;;5072846;28;20523;-84
2022/06/30 11:20:55;;;;;;;5.35;1.90;;;43.40;32.80;;;;;;5073352;28;20080;-84
2022/06/30 11:23:23;;;;;;;2.22;1.65;;;43.30;34.00;;;;;;5073988;28;20052;-83
2022/06/30 11:28:41;;;;;;;2.70;2.20;;;43.40;33.50;;;;;;5056561;28;20049;-84
2022/06/30 11:31:26;;;;;;;4.53;1.80;;;43.40;33.70;;;;;;5074956;28;20059;-84
2022/06/30 11:33:59;;;;;;;7.55;2.15;;;43.30;33.60;;;;;;5073484;28;20052;-83
2022/06/30 11:36:27;;;;;;;2.33;1.60;;;43.40;32.90;;;;;;5074489;28;20075;-84
2022/06/30 11:38:57;;;;;;;4.45;1.70;;;43.50;32.80;;;;;;5073474;28;20504;-85
2022/06/30 11:44:13;;;;;;;1.98;1.83;;;43.70;32.90;;;;;;5072579;28;20052;-85
2022/06/30 11:46:52;;;;;;;5.43;1.70;;;43.50;32.10;;;;;;5072687;28;20059;-82
2022/06/30 11:49:20;;;;;;;5.22;1.60;;;43.70;32.30;;;;;;5073666;28;20041;-84
2022/06/30 11:51:48;;;;;;;3.38;2.25;;;44.00;32.70;;;;;;5073896;28;20083;-83
2022/06/30 11:54:16;;;;;;;6.07;1.83;;;44.00;33.00;;;;;;5073823;28;20060;-82
2022/06/30 11:56:45;;;;;;;3.60;1.70;;;44.00;32.20;;;;;;5073187;28;20076;-84
2022/06/30 11:59:14;;;;;;;4.20;1.58;;;44.10;31.90;;;;;;5071611;28;20048;-84
2022/06/30 12:01:42;;;;;;;1.83;1.60;;;44.20;31.90;;;;;;5073159;28;20063;-83
2022/06/30 12:04:14;;;;;;;2.03;1.50;;;44.50;32.40;;;;;;5072590;28;20507;-82
2022/06/30 12:06:41;;;;;;;2.50;1.50;;;44.50;31.30;;;;;;5073625;28;20044;-83
2022/06/30 12:09:09;;;;;;;3.08;1.90;;;44.50;31.10;;;;;;5071850;28;20053;-83
2022/06/30 12:11:38;;;;;;;1.73;1.50;;;44.60;32.40;;;;;;5072862;28;20425;-82
2022/06/30 12:14:06;;;;;;;3.28;1.60;;;44.90;30.20;;;;;;5073158;28;20063;-83
2022/06/30 12:16:35;;;;;;;2.25;1.55;;;44.90;29.80;;;;;;5072717;28;20083;-83
2022/06/30 12:19:02;;;;;;;2.65;1.70;;;45.10;30.10;;;;;;5071644;28;20488;-82
2022/06/30 12:21:30;;;;;;;2.10;1.85;;;45.20;30.00;;;;;;5073154;28;20044;-83
2022/06/30 12:23:58;;;;;;;1.88;1.65;;;45.30;30.40;;;;;;5073174;28;20048;-83
2022/06/30 12:26:25;;;;;;;2.53;1.58;;;45.20;30.50;;;;;;5072806;28;20059;-83
2022/06/30 12:28:55;;;;;;;1.73;1.60;;;45.00;29.70;;;;;;5072138;28;20127;-83
2022/06/30 12:31:27;;;;;;;2.00;1.57;;;44.80;30.30;;;;;;5071617;28;20143;-83
2022/06/30 12:33:58;;;;;;;4.35;2.33;;;44.90;30.70;;;;;;5071888;28;20523;-86
2022/06/30 12:36:31;;;;;;;3.08;2.00;;;45.10;29.90;;;;;;5072696;28;20060;-82
2022/06/30 12:38:58;;;;;;;1.48;1.38;;;45.10;29.40;;;;;;5071372;28;20142;-83
2022/06/30 12:41:27;;;;;;;5.43;1.60;;;45.10;29.30;;;;;;5071364;28;20061;-83
2022/06/30 12:43:54;;;;;;;2.20;1.75;;;45.20;29.10;;;;;;5072769;28;20084;-84
2022/06/30 12:46:22;;;;;;;7.53;1.60;;;45.20;28.90;;;;;;5072350;28;20052;-82
2022/06/30 12:48:51;;;;;;;1.63;1.50;;;45.20;28.60;;;;;;5072954;28;20040;-82
2022/06/30 12:51:40;;;;;;;3.47;1.30;;;45.20;28.50;;;;;;5071299;28;20139;-82
2022/06/30 12:54:10;;;;;;;6.53;1.60;;;45.10;28.00;;;;;;5072369;28;20090;-82
2022/06/30 12:56:38;;;;;;;2.45;1.90;;;45.10;28.10;;;;;;5071870;28;20463;-81
2022/06/30 12:59:07;;;;;;;1.92;1.83;;;45.10;28.40;;;;;;5070289;28;20466;-81
2022/06/30 13:01:36;;;;;;;4.45;1.45;;;45.00;28.40;;;;;;5071992;28;20097;-80
2022/06/30 13:04:06;;;;;;;2.85;1.67;;;45.10;28.40;;;;;;5054444;28;20090;-81
2022/06/30 13:06:38;;;;;;;3.15;1.40;;;44.90;28.90;;;;;;5072119;28;20052;-83
2022/06/30 13:09:07;;;;;;;1.60;1.50;;;45.10;28.10;;;;;;5070829;28;20109;-80
2022/06/30 13:11:36;;;;;;;3.67;1.67;;;45.20;28.20;;;;;;5072065;28;20059;-80
2022/06/30 13:14:04;;;;;;;3.05;1.50;;;45.00;28.50;;;;;;5072125;28;20565;-80
2022/06/30 13:16:33;;;;;;;1.90;1.77;;;45.00;28.80;;;;;;5072326;28;20491;-81
2022/06/30 13:19:02;;;;;;;4.03;1.60;;;45.10;28.50;;;;;;5072124;28;20066;-81